sensor_id;sensor_type;location;lat;lon;timestamp;temperature;humidity
2603;DHT22;1311;47.966;7.958;2023-03-13T00:02:20;10.90;99.90
2603;DHT22;1311;47.966;7.958;2023-03-13T00:04:46;10.90;99.90
2603;DHT22;1311;47.966;7.958;2023-03-13T00:07:13;11.00;99.90
2603;DHT22;1311;47.966;7.958;2023-03-13T00:09:40;11.00;99.90
2603;DHT22;1311;47.966;7.958;2023-03-13T00:12:08;10.90;99.90
2603;DHT22;1311;47.966;7.958;2023-03-13T00:14:35;10.90;99.90
2603;DHT22;1311;47.966;7.958;2023-03-13T00:17:03;11.00;99.90
2603;DHT22;1311;47.966;7.958;2023-03-13T00:19:30;11.00;99.90
2603;DHT22;1311;47.966;7.958;2023-03-13T00:21:56;11.00;99.90
2603;DHT22;1311;47.966;7.958;2023-03-13T00:24:23;11.00;99.90
2603;DHT22;1311;47.966;7.958;2023-03-13T00:26:50;11.00;99.90
2603;DHT22;1311;47.966;7.958;2023-03-13T00:29:18;11.10;99.90
2603;DHT22;1311;47.966;7.958;2023-03-13T00:31:45;11.00;99.90
2603;DHT22;1311;47.966;7.958;2023-03-13T00:34:11;11.10;99.90
2603;DHT22;1311;47.966;7.958;2023-03-13T00:36:38;11.00;99.90
2603;DHT22;1311;47.966;7.958;2023-03-13T00:39:05;11.00;99.90
2603;DHT22;1311;47.966;7.958;2023-03-13T00:41:33;11.10;99.90
2603;DHT22;1311;47.966;7.958;2023-03-13T00:44:03;11.10;99.90
2603;DHT22;1311;47.966;7.958;2023-03-13T00:46:31;11.20;99.90
2603;DHT22;1311;47.966;7.958;2023-03-13T00:48:57;11.20;99.90
2603;DHT22;1311;47.966;7.958;2023-03-13T00:51:25;11.30;99.90
2603;DHT22;1311;47.966;7.958;2023-03-13T00:53:52;11.30;99.90
2603;DHT22;1311;47.966;7.958;2023-03-13T00:56:20;11.30;99.90
2603;DHT22;1311;47.966;7.958;2023-03-13T00:58:48;11.50;99.90
2603;DHT22;1311;47.966;7.958;2023-03-13T01:01:18;11.60;99.90
2603;DHT22;1311;47.966;7.958;2023-03-13T01:03:48;11.70;99.90
2603;DHT22;1311;47.966;7.958;2023-03-13T01:06:16;11.60;99.90
2603;DHT22;1311;47.966;7.958;2023-03-13T01:08:43;11.60;99.90
2603;DHT22;1311;47.966;7.958;2023-03-13T01:11:12;11.60;99.90
2603;DHT22;1311;47.966;7.958;2023-03-13T01:13:40;11.70;99.90
2603;DHT22;1311;47.966;7.958;2023-03-13T01:16:09;11.90;99.90
2603;DHT22;1311;47.966;7.958;2023-03-13T01:18:38;11.90;99.90
2603;DHT22;1311;47.966;7.958;2023-03-13T01:21:07;12.00;99.90
2603;DHT22;1311;47.966;7.958;2023-03-13T01:23:34;12.10;99.90
2603;DHT22;1311;47.966;7.958;2023-03-13T01:26:03;12.10;99.90
2603;DHT22;1311;47.966;7.958;2023-03-13T01:28:30;12.10;99.90
2603;DHT22;1311;47.966;7.958;2023-03-13T01:30:57;12.10;99.90
2603;DHT22;1311;47.966;7.958;2023-03-13T01:33:24;12.10;99.90
2603;DHT22;1311;47.966;7.958;2023-03-13T01:35:51;12.10;99.90
2603;DHT22;1311;47.966;7.958;2023-03-13T01:38:19;12.20;99.90
2603;DHT22;1311;47.966;7.958;2023-03-13T01:40:47;12.20;99.90
2603;DHT22;1311;47.966;7.958;2023-03-13T01:43:19;12.10;99.90
2603;DHT22;1311;47.966;7.958;2023-03-13T01:45:58;12.10;99.90
2603;DHT22;1311;47.966;7.958;2023-03-13T01:48:33;12.10;99.90
2603;DHT22;1311;47.966;7.958;2023-03-13T01:51:03;12.00;99.90
2603;DHT22;1311;47.966;7.958;2023-03-13T01:53:35;12.00;99.90
2603;DHT22;1311;47.966;7.958;2023-03-13T01:56:05;12.00;99.90
2603;DHT22;1311;47.966;7.958;2023-03-13T01:58:33;12.00;99.90
2603;DHT22;1311;47.966;7.958;2023-03-13T02:01:01;11.90;99.90
2603;DHT22;1311;47.966;7.958;2023-03-13T02:03:29;11.90;99.90
2603;DHT22;1311;47.966;7.958;2023-03-13T02:05:57;11.80;99.90
2603;DHT22;1311;47.966;7.958;2023-03-13T02:08:29;11.80;99.90
2603;DHT22;1311;47.966;7.958;2023-03-13T02:11:05;11.70;99.90
2603;DHT22;1311;47.966;7.958;2023-03-13T02:13:33;11.70;99.90
2603;DHT22;1311;47.966;7.958;2023-03-13T02:16:00;11.70;99.90
2603;DHT22;1311;47.966;7.958;2023-03-13T02:18:27;11.70;99.90
2603;DHT22;1311;47.966;7.958;2023-03-13T02:20:59;11.70;99.90
2603;DHT22;1311;47.966;7.958;2023-03-13T02:23:32;11.60;99.90
2603;DHT22;1311;47.966;7.958;2023-03-13T02:26:04;11.60;99.90
2603;DHT22;1311;47.966;7.958;2023-03-13T02:28:33;11.70;99.90
2603;DHT22;1311;47.966;7.958;2023-03-13T02:31:00;11.70;99.90
2603;DHT22;1311;47.966;7.958;2023-03-13T02:33:29;11.70;99.90
2603;DHT22;1311;47.966;7.958;2023-03-13T02:35:57;11.70;99.90
2603;DHT22;1311;47.966;7.958;2023-03-13T02:38:28;11.80;99.90
2603;DHT22;1311;47.966;7.958;2023-03-13T02:40:56;11.80;99.90
2603;DHT22;1311;47.966;7.958;2023-03-13T02:43:29;11.80;99.90
2603;DHT22;1311;47.966;7.958;2023-03-13T02:46:07;11.80;99.90
2603;DHT22;1311;47.966;7.958;2023-03-13T02:48:37;12.00;99.90
2603;DHT22;1311;47.966;7.958;2023-03-13T02:51:07;12.00;99.90
2603;DHT22;1311;47.966;7.958;2023-03-13T02:53:37;11.90;99.90
2603;DHT22;1311;47.966;7.958;2023-03-13T02:56:04;11.90;99.90
2603;DHT22;1311;47.966;7.958;2023-03-13T02:58:38;11.90;99.90
2603;DHT22;1311;47.966;7.958;2023-03-13T03:01:06;12.00;99.90
2603;DHT22;1311;47.966;7.958;2023-03-13T03:03:33;12.00;99.90
2603;DHT22;1311;47.966;7.958;2023-03-13T03:06:01;12.00;99.90
2603;DHT22;1311;47.966;7.958;2023-03-13T03:08:28;12.10;99.90
2603;DHT22;1311;47.966;7.958;2023-03-13T03:10:55;12.00;99.90
2603;DHT22;1311;47.966;7.958;2023-03-13T03:13:22;12.00;99.90
2603;DHT22;1311;47.966;7.958;2023-03-13T03:15:50;12.10;99.90
2603;DHT22;1311;47.966;7.958;2023-03-13T03:18:17;12.10;99.90
2603;DHT22;1311;47.966;7.958;2023-03-13T03:20:43;12.10;99.90
2603;DHT22;1311;47.966;7.958;2023-03-13T03:23:10;12.10;99.90
2603;DHT22;1311;47.966;7.958;2023-03-13T03:25:37;12.10;99.90
2603;DHT22;1311;47.966;7.958;2023-03-13T03:28:04;12.10;99.90
2603;DHT22;1311;47.966;7.958;2023-03-13T03:30:31;12.10;99.90
2603;DHT22;1311;47.966;7.958;2023-03-13T03:33:01;12.10;99.90
2603;DHT22;1311;47.966;7.958;2023-03-13T03:35:28;12.10;99.90
2603;DHT22;1311;47.966;7.958;2023-03-13T03:37:54;12.10;99.90
2603;DHT22;1311;47.966;7.958;2023-03-13T03:40:21;12.10;99.90
2603;DHT22;1311;47.966;7.958;2023-03-13T03:42:48;12.10;99.90
2603;DHT22;1311;47.966;7.958;2023-03-13T03:45:15;12.20;99.90
2603;DHT22;1311;47.966;7.958;2023-03-13T03:47:41;12.10;99.90
2603;DHT22;1311;47.966;7.958;2023-03-13T03:50:10;12.10;99.90
2603;DHT22;1311;47.966;7.958;2023-03-13T03:52:37;12.20;99.90
2603;DHT22;1311;47.966;7.958;2023-03-13T03:55:04;12.20;99.90
2603;DHT22;1311;47.966;7.958;2023-03-13T03:57:31;12.20;99.90
2603;DHT22;1311;47.966;7.958;2023-03-13T03:59:58;12.10;99.90
2603;DHT22;1311;47.966;7.958;2023-03-13T04:02:24;12.00;99.90
2603;DHT22;1311;47.966;7.958;2023-03-13T04:04:51;12.00;99.90
2603;DHT22;1311;47.966;7.958;2023-03-13T04:07:19;11.90;99.90
2603;DHT22;1311;47.966;7.958;2023-03-13T04:09:46;11.80;99.90
2603;DHT22;1311;47.966;7.958;2023-03-13T04:12:13;11.80;99.90
2603;DHT22;1311;47.966;7.958;2023-03-13T04:14:39;11.80;99.90
2603;DHT22;1311;47.966;7.958;2023-03-13T04:17:06;11.80;99.90
2603;DHT22;1311;47.966;7.958;2023-03-13T04:19:33;11.70;99.90
2603;DHT22;1311;47.966;7.958;2023-03-13T04:21:59;11.70;99.90
2603;DHT22;1311;47.966;7.958;2023-03-13T04:24:27;11.70;99.90
2603;DHT22;1311;47.966;7.958;2023-03-13T04:26:54;11.80;99.90
2603;DHT22;1311;47.966;7.958;2023-03-13T04:29:21;11.70;99.90
2603;DHT22;1311;47.966;7.958;2023-03-13T04:31:48;11.80;99.90
2603;DHT22;1311;47.966;7.958;2023-03-13T04:34:14;11.90;99.90
2603;DHT22;1311;47.966;7.958;2023-03-13T04:36:41;11.90;99.90
2603;DHT22;1311;47.966;7.958;2023-03-13T04:39:08;12.00;99.90
2603;DHT22;1311;47.966;7.958;2023-03-13T04:41:36;12.00;99.90
2603;DHT22;1311;47.966;7.958;2023-03-13T04:44:03;12.00;99.90
2603;DHT22;1311;47.966;7.958;2023-03-13T04:46:30;12.10;99.90
2603;DHT22;1311;47.966;7.958;2023-03-13T04:48:57;12.10;99.90
2603;DHT22;1311;47.966;7.958;2023-03-13T04:51:23;12.10;99.90
2603;DHT22;1311;47.966;7.958;2023-03-13T04:53:50;12.20;99.90
2603;DHT22;1311;47.966;7.958;2023-03-13T04:56:21;12.20;99.90
2603;DHT22;1311;47.966;7.958;2023-03-13T04:58:50;12.30;99.90
2603;DHT22;1311;47.966;7.958;2023-03-13T05:01:17;12.30;99.90
2603;DHT22;1311;47.966;7.958;2023-03-13T05:03:44;12.40;99.90
2603;DHT22;1311;47.966;7.958;2023-03-13T05:06:11;12.40;99.90
2603;DHT22;1311;47.966;7.958;2023-03-13T05:08:38;12.40;99.90
2603;DHT22;1311;47.966;7.958;2023-03-13T05:11:05;12.40;99.90
2603;DHT22;1311;47.966;7.958;2023-03-13T05:13:31;12.20;99.90
2603;DHT22;1311;47.966;7.958;2023-03-13T05:16:00;12.30;99.90
2603;DHT22;1311;47.966;7.958;2023-03-13T05:18:27;12.30;99.90
2603;DHT22;1311;47.966;7.958;2023-03-13T05:20:53;12.20;99.90
2603;DHT22;1311;47.966;7.958;2023-03-13T05:23:20;12.20;99.90
2603;DHT22;1311;47.966;7.958;2023-03-13T05:25:47;12.20;99.90
2603;DHT22;1311;47.966;7.958;2023-03-13T05:28:14;12.10;99.90
2603;DHT22;1311;47.966;7.958;2023-03-13T05:30:40;12.10;99.90
2603;DHT22;1311;47.966;7.958;2023-03-13T05:33:08;12.10;99.90
2603;DHT22;1311;47.966;7.958;2023-03-13T05:35:36;12.00;99.90
2603;DHT22;1311;47.966;7.958;2023-03-13T05:38:02;12.00;99.90
2603;DHT22;1311;47.966;7.958;2023-03-13T05:40:29;12.10;99.90
2603;DHT22;1311;47.966;7.958;2023-03-13T05:42:56;12.10;99.90
2603;DHT22;1311;47.966;7.958;2023-03-13T05:45:23;12.10;99.90
2603;DHT22;1311;47.966;7.958;2023-03-13T05:47:50;12.10;99.90
2603;DHT22;1311;47.966;7.958;2023-03-13T05:50:18;12.10;99.90
2603;DHT22;1311;47.966;7.958;2023-03-13T05:52:45;12.10;99.90
2603;DHT22;1311;47.966;7.958;2023-03-13T05:55:12;12.10;99.90
2603;DHT22;1311;47.966;7.958;2023-03-13T05:57:39;12.30;99.90
2603;DHT22;1311;47.966;7.958;2023-03-13T06:00:07;12.30;99.90
2603;DHT22;1311;47.966;7.958;2023-03-13T06:02:34;12.40;99.90
2603;DHT22;1311;47.966;7.958;2023-03-13T06:05:01;12.40;99.90
2603;DHT22;1311;47.966;7.958;2023-03-13T06:07:29;12.30;99.90
2603;DHT22;1311;47.966;7.958;2023-03-13T06:09:55;12.40;99.90
2603;DHT22;1311;47.966;7.958;2023-03-13T06:12:22;12.40;99.90
2603;DHT22;1311;47.966;7.958;2023-03-13T06:14:49;12.40;99.90
2603;DHT22;1311;47.966;7.958;2023-03-13T06:17:16;12.40;99.90
2603;DHT22;1311;47.966;7.958;2023-03-13T06:19:42;12.40;99.90
2603;DHT22;1311;47.966;7.958;2023-03-13T06:22:09;12.50;99.90
2603;DHT22;1311;47.966;7.958;2023-03-13T06:24:37;12.40;99.90
2603;DHT22;1311;47.966;7.958;2023-03-13T06:27:04;12.50;99.90
2603;DHT22;1311;47.966;7.958;2023-03-13T06:29:32;12.60;99.90
2603;DHT22;1311;47.966;7.958;2023-03-13T06:31:59;12.50;99.90
2603;DHT22;1311;47.966;7.958;2023-03-13T06:34:26;12.60;99.90
2603;DHT22;1311;47.966;7.958;2023-03-13T06:36:52;12.70;99.90
2603;DHT22;1311;47.966;7.958;2023-03-13T06:39:19;12.80;99.90
2603;DHT22;1311;47.966;7.958;2023-03-13T06:41:47;12.80;99.90
2603;DHT22;1311;47.966;7.958;2023-03-13T06:44:14;12.90;99.90
2603;DHT22;1311;47.966;7.958;2023-03-13T06:46:41;13.00;99.90
2603;DHT22;1311;47.966;7.958;2023-03-13T06:49:07;13.00;99.90
2603;DHT22;1311;47.966;7.958;2023-03-13T06:51:34;13.00;99.90
2603;DHT22;1311;47.966;7.958;2023-03-13T06:54:01;13.00;99.90
2603;DHT22;1311;47.966;7.958;2023-03-13T06:56:28;13.00;99.90
2603;DHT22;1311;47.966;7.958;2023-03-13T06:58:56;13.10;99.90
2603;DHT22;1311;47.966;7.958;2023-03-13T07:01:23;13.10;99.90
2603;DHT22;1311;47.966;7.958;2023-03-13T07:03:50;13.10;99.90
2603;DHT22;1311;47.966;7.958;2023-03-13T07:06:17;13.10;99.90
2603;DHT22;1311;47.966;7.958;2023-03-13T07:08:44;13.10;99.90
2603;DHT22;1311;47.966;7.958;2023-03-13T07:11:13;13.10;99.90
2603;DHT22;1311;47.966;7.958;2023-03-13T07:13:40;13.10;99.90
2603;DHT22;1311;47.966;7.958;2023-03-13T07:16:10;13.10;99.90
2603;DHT22;1311;47.966;7.958;2023-03-13T07:18:38;13.10;99.90
2603;DHT22;1311;47.966;7.958;2023-03-13T07:21:09;13.10;99.90
2603;DHT22;1311;47.966;7.958;2023-03-13T07:23:36;13.10;99.90
2603;DHT22;1311;47.966;7.958;2023-03-13T07:26:04;13.20;99.90
2603;DHT22;1311;47.966;7.958;2023-03-13T07:28:32;13.30;99.90
2603;DHT22;1311;47.966;7.958;2023-03-13T07:31:03;13.30;99.90
2603;DHT22;1311;47.966;7.958;2023-03-13T07:33:31;13.30;99.90
2603;DHT22;1311;47.966;7.958;2023-03-13T07:35:58;13.30;99.90
2603;DHT22;1311;47.966;7.958;2023-03-13T07:38:25;13.30;99.90
2603;DHT22;1311;47.966;7.958;2023-03-13T07:40:53;13.40;99.90
2603;DHT22;1311;47.966;7.958;2023-03-13T07:43:21;13.40;99.90
2603;DHT22;1311;47.966;7.958;2023-03-13T07:45:53;13.50;99.90
2603;DHT22;1311;47.966;7.958;2023-03-13T07:48:21;13.50;99.90
2603;DHT22;1311;47.966;7.958;2023-03-13T07:50:50;13.70;99.90
2603;DHT22;1311;47.966;7.958;2023-03-13T07:53:17;13.90;99.90
2603;DHT22;1311;47.966;7.958;2023-03-13T07:55:53;14.10;99.90
2603;DHT22;1311;47.966;7.958;2023-03-13T07:58:21;14.20;99.90
2603;DHT22;1311;47.966;7.958;2023-03-13T08:00:48;14.30;99.90
2603;DHT22;1311;47.966;7.958;2023-03-13T08:03:15;14.30;99.90
2603;DHT22;1311;47.966;7.958;2023-03-13T08:05:41;14.20;99.90
2603;DHT22;1311;47.966;7.958;2023-03-13T08:08:09;14.40;99.90
2603;DHT22;1311;47.966;7.958;2023-03-13T08:10:36;14.50;99.90
2603;DHT22;1311;47.966;7.958;2023-03-13T08:13:03;14.60;99.90
2603;DHT22;1311;47.966;7.958;2023-03-13T08:15:30;14.70;99.90
2603;DHT22;1311;47.966;7.958;2023-03-13T08:17:57;14.60;99.90
2603;DHT22;1311;47.966;7.958;2023-03-13T08:20:24;14.50;99.90
2603;DHT22;1311;47.966;7.958;2023-03-13T08:22:51;14.50;99.90
2603;DHT22;1311;47.966;7.958;2023-03-13T08:25:19;14.60;99.90
2603;DHT22;1311;47.966;7.958;2023-03-13T08:27:45;14.60;99.90
2603;DHT22;1311;47.966;7.958;2023-03-13T08:30:13;14.60;99.90
2603;DHT22;1311;47.966;7.958;2023-03-13T08:32:40;14.60;99.90
2603;DHT22;1311;47.966;7.958;2023-03-13T08:35:07;14.60;99.90
2603;DHT22;1311;47.966;7.958;2023-03-13T08:37:34;14.70;99.90
2603;DHT22;1311;47.966;7.958;2023-03-13T08:40:01;14.90;99.90
2603;DHT22;1311;47.966;7.958;2023-03-13T08:42:36;14.90;99.90
2603;DHT22;1311;47.966;7.958;2023-03-13T08:45:04;15.20;99.90
2603;DHT22;1311;47.966;7.958;2023-03-13T08:47:31;15.60;99.90
2603;DHT22;1311;47.966;7.958;2023-03-13T08:49:58;15.80;99.90
2603;DHT22;1311;47.966;7.958;2023-03-13T08:52:25;16.10;99.90
2603;DHT22;1311;47.966;7.958;2023-03-13T08:54:52;16.40;99.90
2603;DHT22;1311;47.966;7.958;2023-03-13T08:57:18;16.50;99.90
2603;DHT22;1311;47.966;7.958;2023-03-13T08:59:47;16.50;99.90
2603;DHT22;1311;47.966;7.958;2023-03-13T09:02:14;16.40;99.90
2603;DHT22;1311;47.966;7.958;2023-03-13T09:04:44;16.70;99.90
2603;DHT22;1311;47.966;7.958;2023-03-13T09:07:12;16.60;99.90
2603;DHT22;1311;47.966;7.958;2023-03-13T09:09:38;16.50;99.90
2603;DHT22;1311;47.966;7.958;2023-03-13T09:12:06;16.50;99.90
2603;DHT22;1311;47.966;7.958;2023-03-13T09:14:33;16.80;99.90
2603;DHT22;1311;47.966;7.958;2023-03-13T09:17:01;16.90;99.90
2603;DHT22;1311;47.966;7.958;2023-03-13T09:19:29;17.30;99.90
2603;DHT22;1311;47.966;7.958;2023-03-13T09:21:55;17.50;99.90
2603;DHT22;1311;47.966;7.958;2023-03-13T09:24:22;17.50;99.90
2603;DHT22;1311;47.966;7.958;2023-03-13T09:26:49;17.30;99.90
2603;DHT22;1311;47.966;7.958;2023-03-13T09:29:16;17.30;99.90
2603;DHT22;1311;47.966;7.958;2023-03-13T09:31:42;17.40;99.90
2603;DHT22;1311;47.966;7.958;2023-03-13T09:34:10;17.20;99.90
2603;DHT22;1311;47.966;7.958;2023-03-13T09:36:37;17.20;99.90
2603;DHT22;1311;47.966;7.958;2023-03-13T09:39:04;17.50;99.90
2603;DHT22;1311;47.966;7.958;2023-03-13T09:41:34;17.60;99.90
2603;DHT22;1311;47.966;7.958;2023-03-13T09:44:06;17.50;99.90
2603;DHT22;1311;47.966;7.958;2023-03-13T09:46:40;17.20;99.90
2603;DHT22;1311;47.966;7.958;2023-03-13T09:49:14;17.10;99.90
2603;DHT22;1311;47.966;7.958;2023-03-13T09:51:46;17.40;99.90
2603;DHT22;1311;47.966;7.958;2023-03-13T09:54:22;17.30;99.90
2603;DHT22;1311;47.966;7.958;2023-03-13T09:56:53;17.40;99.90
2603;DHT22;1311;47.966;7.958;2023-03-13T09:59:26;17.80;99.90
2603;DHT22;1311;47.966;7.958;2023-03-13T10:01:54;18.00;99.90
2603;DHT22;1311;47.966;7.958;2023-03-13T10:04:29;18.30;99.90
2603;DHT22;1311;47.966;7.958;2023-03-13T10:06:58;18.20;99.90
2603;DHT22;1311;47.966;7.958;2023-03-13T10:09:27;18.20;99.90
2603;DHT22;1311;47.966;7.958;2023-03-13T10:12:02;18.10;99.90
2603;DHT22;1311;47.966;7.958;2023-03-13T10:14:38;18.00;99.90
2603;DHT22;1311;47.966;7.958;2023-03-13T10:17:14;18.10;99.90
2603;DHT22;1311;47.966;7.958;2023-03-13T10:19:47;18.40;99.90
2603;DHT22;1311;47.966;7.958;2023-03-13T10:22:23;18.70;99.90
2603;DHT22;1311;47.966;7.958;2023-03-13T10:24:54;18.90;99.90
2603;DHT22;1311;47.966;7.958;2023-03-13T10:27:21;19.00;99.90
2603;DHT22;1311;47.966;7.958;2023-03-13T10:29:48;19.20;99.90
2603;DHT22;1311;47.966;7.958;2023-03-13T10:32:16;19.60;99.90
2603;DHT22;1311;47.966;7.958;2023-03-13T10:34:56;19.00;99.90
2603;DHT22;1311;47.966;7.958;2023-03-13T10:37:25;19.20;99.90
2603;DHT22;1311;47.966;7.958;2023-03-13T10:39:52;19.20;99.90
2603;DHT22;1311;47.966;7.958;2023-03-13T10:42:26;19.60;99.90
2603;DHT22;1311;47.966;7.958;2023-03-13T10:45:01;19.60;99.90
2603;DHT22;1311;47.966;7.958;2023-03-13T10:47:32;19.70;99.90
2603;DHT22;1311;47.966;7.958;2023-03-13T10:50:01;19.60;99.90
2603;DHT22;1311;47.966;7.958;2023-03-13T10:52:33;19.70;97.60
2603;DHT22;1311;47.966;7.958;2023-03-13T10:55:02;19.90;94.90
2603;DHT22;1311;47.966;7.958;2023-03-13T10:57:31;19.90;86.00
2603;DHT22;1311;47.966;7.958;2023-03-13T11:00:03;20.20;77.20
2603;DHT22;1311;47.966;7.958;2023-03-13T11:02:36;20.60;65.50
2603;DHT22;1311;47.966;7.958;2023-03-13T11:05:30;20.70;36.80
2603;DHT22;1311;47.966;7.958;2023-03-13T11:07:58;20.50;1.00
2603;DHT22;1311;47.966;7.958;2023-03-13T11:10:36;20.80;1.00
2603;DHT22;1311;47.966;7.958;2023-03-13T11:13:02;20.90;1.00
2603;DHT22;1311;47.966;7.958;2023-03-13T11:15:31;20.90;1.00
2603;DHT22;1311;47.966;7.958;2023-03-13T11:18:06;21.00;1.00
2603;DHT22;1311;47.966;7.958;2023-03-13T11:20:39;21.10;1.00
2603;DHT22;1311;47.966;7.958;2023-03-13T11:23:13;21.20;1.00
2603;DHT22;1311;47.966;7.958;2023-03-13T11:25:48;21.30;1.00
2603;DHT22;1311;47.966;7.958;2023-03-13T11:28:27;21.20;1.00
2603;DHT22;1311;47.966;7.958;2023-03-13T11:31:04;21.10;1.00
2603;DHT22;1311;47.966;7.958;2023-03-13T11:33:38;21.00;99.90
2603;DHT22;1311;47.966;7.958;2023-03-13T11:36:19;20.90;99.90
2603;DHT22;1311;47.966;7.958;2023-03-13T11:38:48;21.00;99.90
2603;DHT22;1311;47.966;7.958;2023-03-13T11:41:29;21.20;99.90
2603;DHT22;1311;47.966;7.958;2023-03-13T11:44:12;21.20;1.00
2603;DHT22;1311;47.966;7.958;2023-03-13T11:46:48;21.20;1.00
2603;DHT22;1311;47.966;7.958;2023-03-13T11:49:38;21.30;39.40
2603;DHT22;1311;47.966;7.958;2023-03-13T11:52:17;21.30;1.00
2603;DHT22;1311;47.966;7.958;2023-03-13T11:57:49;21.30;18.00
2603;DHT22;1311;47.966;7.958;2023-03-13T12:00:21;21.40;99.90
2603;DHT22;1311;47.966;7.958;2023-03-13T12:02:55;21.60;1.00
2603;DHT22;1311;47.966;7.958;2023-03-13T12:05:24;21.80;99.90
2603;DHT22;1311;47.966;7.958;2023-03-13T12:07:56;21.80;1.00
2603;DHT22;1311;47.966;7.958;2023-03-13T12:10:31;22.00;1.00
2603;DHT22;1311;47.966;7.958;2023-03-13T12:13:03;22.20;1.00
2603;DHT22;1311;47.966;7.958;2023-03-13T12:15:33;22.20;1.00
2603;DHT22;1311;47.966;7.958;2023-03-13T12:18:05;22.30;1.00
2603;DHT22;1311;47.966;7.958;2023-03-13T12:20:42;22.30;99.90
2603;DHT22;1311;47.966;7.958;2023-03-13T12:23:18;22.10;21.60
2603;DHT22;1311;47.966;7.958;2023-03-13T12:25:50;21.80;3.00
2603;DHT22;1311;47.966;7.958;2023-03-13T12:28:24;21.60;1.00
2603;DHT22;1311;47.966;7.958;2023-03-13T12:30:59;21.70;99.90
2603;DHT22;1311;47.966;7.958;2023-03-13T12:33:31;22.00;99.90
2603;DHT22;1311;47.966;7.958;2023-03-13T12:36:05;21.90;99.90
2603;DHT22;1311;47.966;7.958;2023-03-13T12:38:38;21.90;99.90
2603;DHT22;1311;47.966;7.958;2023-03-13T12:41:13;21.90;99.90
2603;DHT22;1311;47.966;7.958;2023-03-13T12:43:44;22.10;99.90
2603;DHT22;1311;47.966;7.958;2023-03-13T12:46:28;22.20;1.00
2603;DHT22;1311;47.966;7.958;2023-03-13T12:49:31;22.30;70.60
2603;DHT22;1311;47.966;7.958;2023-03-13T12:52:27;22.20;1.00
2603;DHT22;1311;47.966;7.958;2023-03-13T12:55:17;22.50;1.00
2603;DHT22;1311;47.966;7.958;2023-03-13T12:58:09;22.70;1.00
2603;DHT22;1311;47.966;7.958;2023-03-13T13:00:40;22.80;1.00
2603;DHT22;1311;47.966;7.958;2023-03-13T13:03:19;22.80;99.90
2603;DHT22;1311;47.966;7.958;2023-03-13T13:05:58;22.80;99.90
2603;DHT22;1311;47.966;7.958;2023-03-13T13:08:26;23.10;99.90
2603;DHT22;1311;47.966;7.958;2023-03-13T13:14:55;23.30;99.90
2603;DHT22;1311;47.966;7.958;2023-03-13T13:17:46;23.20;99.90
2603;DHT22;1311;47.966;7.958;2023-03-13T13:20:45;22.90;99.90
2603;DHT22;1311;47.966;7.958;2023-03-13T13:23:28;22.80;99.90
2603;DHT22;1311;47.966;7.958;2023-03-13T13:26:38;22.70;93.10
2603;DHT22;1311;47.966;7.958;2023-03-13T13:32:39;22.80;99.90
2603;DHT22;1311;47.966;7.958;2023-03-13T13:35:25;22.90;99.90
2603;DHT22;1311;47.966;7.958;2023-03-13T13:37:52;22.90;99.90
2603;DHT22;1311;47.966;7.958;2023-03-13T13:40:28;23.10;99.90
2603;DHT22;1311;47.966;7.958;2023-03-13T13:42:57;23.00;99.90
2603;DHT22;1311;47.966;7.958;2023-03-13T13:45:27;22.80;99.90
2603;DHT22;1311;47.966;7.958;2023-03-13T13:48:26;22.40;99.90
2603;DHT22;1311;47.966;7.958;2023-03-13T13:53:59;22.60;99.90
2603;DHT22;1311;47.966;7.958;2023-03-13T13:56:47;22.50;99.90
2603;DHT22;1311;47.966;7.958;2023-03-13T13:59:26;22.40;99.90
2603;DHT22;1311;47.966;7.958;2023-03-13T14:02:15;22.60;1.00
2603;DHT22;1311;47.966;7.958;2023-03-13T14:04:47;22.40;1.00
2603;DHT22;1311;47.966;7.958;2023-03-13T14:07:17;22.10;1.00
2603;DHT22;1311;47.966;7.958;2023-03-13T14:09:51;21.80;1.00
2603;DHT22;1311;47.966;7.958;2023-03-13T14:12:28;21.50;99.90
2603;DHT22;1311;47.966;7.958;2023-03-13T14:15:12;21.30;99.90
2603;DHT22;1311;47.966;7.958;2023-03-13T14:17:41;21.20;1.00
2603;DHT22;1311;47.966;7.958;2023-03-13T14:20:34;21.20;99.90
2603;DHT22;1311;47.966;7.958;2023-03-13T14:23:05;21.10;1.00
2603;DHT22;1311;47.966;7.958;2023-03-13T14:25:43;20.80;1.00
2603;DHT22;1311;47.966;7.958;2023-03-13T14:28:19;20.80;1.00
2603;DHT22;1311;47.966;7.958;2023-03-13T14:30:47;21.10;1.00
2603;DHT22;1311;47.966;7.958;2023-03-13T14:33:14;22.00;1.00
2603;DHT22;1311;47.966;7.958;2023-03-13T14:35:43;22.20;1.00
2603;DHT22;1311;47.966;7.958;2023-03-13T14:38:19;22.30;99.90
2603;DHT22;1311;47.966;7.958;2023-03-13T14:40:47;22.10;99.90
2603;DHT22;1311;47.966;7.958;2023-03-13T14:43:23;22.10;25.60
2603;DHT22;1311;47.966;7.958;2023-03-13T14:45:51;22.00;99.90
2603;DHT22;1311;47.966;7.958;2023-03-13T14:48:20;21.70;1.00
2603;DHT22;1311;47.966;7.958;2023-03-13T14:50:50;21.50;48.60
2603;DHT22;1311;47.966;7.958;2023-03-13T14:53:20;21.80;99.90
2603;DHT22;1311;47.966;7.958;2023-03-13T14:56:07;21.80;99.90
2603;DHT22;1311;47.966;7.958;2023-03-13T14:58:35;22.10;99.90
2603;DHT22;1311;47.966;7.958;2023-03-13T15:01:13;22.10;57.80
2603;DHT22;1311;47.966;7.958;2023-03-13T15:03:43;22.10;1.00
2603;DHT22;1311;47.966;7.958;2023-03-13T15:06:16;22.00;1.00
2603;DHT22;1311;47.966;7.958;2023-03-13T15:08:46;21.70;1.00
2603;DHT22;1311;47.966;7.958;2023-03-13T15:11:19;21.60;1.00
2603;DHT22;1311;47.966;7.958;2023-03-13T15:13:46;21.50;99.90
2603;DHT22;1311;47.966;7.958;2023-03-13T15:16:15;21.30;99.90
2603;DHT22;1311;47.966;7.958;2023-03-13T15:18:43;21.40;1.00
2603;DHT22;1311;47.966;7.958;2023-03-13T15:21:25;21.50;1.00
2603;DHT22;1311;47.966;7.958;2023-03-13T15:23:53;21.60;1.00
2603;DHT22;1311;47.966;7.958;2023-03-13T15:26:20;21.60;1.00
2603;DHT22;1311;47.966;7.958;2023-03-13T15:28:47;21.60;1.00
2603;DHT22;1311;47.966;7.958;2023-03-13T15:31:14;21.60;99.90
2603;DHT22;1311;47.966;7.958;2023-03-13T15:33:42;21.70;99.90
2603;DHT22;1311;47.966;7.958;2023-03-13T15:36:10;21.50;1.00
2603;DHT22;1311;47.966;7.958;2023-03-13T15:38:38;21.30;1.00
2603;DHT22;1311;47.966;7.958;2023-03-13T15:41:05;21.10;6.30
2603;DHT22;1311;47.966;7.958;2023-03-13T15:43:34;20.90;99.90
2603;DHT22;1311;47.966;7.958;2023-03-13T15:46:01;20.90;99.90
2603;DHT22;1311;47.966;7.958;2023-03-13T15:48:28;20.90;99.90
2603;DHT22;1311;47.966;7.958;2023-03-13T15:50:57;20.90;1.00
2603;DHT22;1311;47.966;7.958;2023-03-13T15:53:26;20.90;99.90
2603;DHT22;1311;47.966;7.958;2023-03-13T15:55:56;20.80;99.90
2603;DHT22;1311;47.966;7.958;2023-03-13T15:58:23;20.80;99.90
2603;DHT22;1311;47.966;7.958;2023-03-13T16:00:50;20.80;99.90
2603;DHT22;1311;47.966;7.958;2023-03-13T16:03:19;20.60;1.00
2603;DHT22;1311;47.966;7.958;2023-03-13T16:05:47;20.40;1.00
2603;DHT22;1311;47.966;7.958;2023-03-13T16:08:16;20.30;1.00
2603;DHT22;1311;47.966;7.958;2023-03-13T16:10:43;20.20;99.90
2603;DHT22;1311;47.966;7.958;2023-03-13T16:13:11;20.20;99.90
2603;DHT22;1311;47.966;7.958;2023-03-13T16:15:38;20.40;99.90
2603;DHT22;1311;47.966;7.958;2023-03-13T16:18:05;20.30;99.90
2603;DHT22;1311;47.966;7.958;2023-03-13T16:20:33;20.40;99.90
2603;DHT22;1311;47.966;7.958;2023-03-13T16:23:00;20.40;99.90
2603;DHT22;1311;47.966;7.958;2023-03-13T16:25:29;20.20;99.90
2603;DHT22;1311;47.966;7.958;2023-03-13T16:27:57;20.10;1.00
2603;DHT22;1311;47.966;7.958;2023-03-13T16:30:27;19.90;1.00
2603;DHT22;1311;47.966;7.958;2023-03-13T16:32:55;19.80;99.90
2603;DHT22;1311;47.966;7.958;2023-03-13T16:35:23;19.70;18.00
2603;DHT22;1311;47.966;7.958;2023-03-13T16:37:51;19.60;99.90